Wolsingham, United Kingdom
Current Conditions -  °F | °C
As of 11:50 AM on Monday 22 Dec 2014 (Local Time) from EGNT Reporting Station
Rain Showers Rain Showers  
Wind Chill: 50°   Ceiling: Unl
Heat Index: 50°   Visibility: 6mi
Dew Point: 48°   Wind: 17mph
Humidity: 94%   Direction: 270°W
Pressure: 29.62"   Gusts: NA
Location:  54.73°N, 1.88°W
Report Text: EGNT 221150Z 27015KT 9999 -SHRA FEW010 SCT028 10/09 Q1003
Loading
Personal Weather Stations






























Interactive Weather Map New forecast layout! Learn more

10-Day Weather Forecast

Advertisements
Track Severe Weather on mobile